sensor_id;sensor_type;location;lat;lon;timestamp;temperature;humidity
18218;DHT22;9234;49.344;11.120;2023-06-14T00:02:02;14.80;85.30
18218;DHT22;9234;49.344;11.120;2023-06-14T00:04:31;14.80;84.90
18218;DHT22;9234;49.344;11.120;2023-06-14T00:07:00;14.80;84.50
18218;DHT22;9234;49.344;11.120;2023-06-14T00:09:29;14.80;84.70
18218;DHT22;9234;49.344;11.120;2023-06-14T00:11:57;14.90;84.80
18218;DHT22;9234;49.344;11.120;2023-06-14T00:14:26;14.90;85.80
18218;DHT22;9234;49.344;11.120;2023-06-14T00:16:55;14.80;86.90
18218;DHT22;9234;49.344;11.120;2023-06-14T00:19:25;14.80;87.10
18218;DHT22;9234;49.344;11.120;2023-06-14T00:21:54;14.80;86.70
18218;DHT22;9234;49.344;11.120;2023-06-14T00:24:23;14.80;86.70
18218;DHT22;9234;49.344;11.120;2023-06-14T00:26:51;14.80;87.50
18218;DHT22;9234;49.344;11.120;2023-06-14T00:29:20;14.80;88.30
18218;DHT22;9234;49.344;11.120;2023-06-14T00:31:48;14.80;89.00
18218;DHT22;9234;49.344;11.120;2023-06-14T00:34:19;14.70;90.00
18218;DHT22;9234;49.344;11.120;2023-06-14T00:36:47;14.70;90.20
18218;DHT22;9234;49.344;11.120;2023-06-14T00:39:16;14.60;90.20
18218;DHT22;9234;49.344;11.120;2023-06-14T00:41:44;14.60;90.30
18218;DHT22;9234;49.344;11.120;2023-06-14T00:44:13;14.50;90.20
18218;DHT22;9234;49.344;11.120;2023-06-14T00:46:45;14.50;90.30
18218;DHT22;9234;49.344;11.120;2023-06-14T00:49:14;14.50;90.30
18218;DHT22;9234;49.344;11.120;2023-06-14T00:51:46;14.40;90.50
18218;DHT22;9234;49.344;11.120;2023-06-14T00:54:15;14.40;90.70
18218;DHT22;9234;49.344;11.120;2023-06-14T00:56:44;14.40;90.80
18218;DHT22;9234;49.344;11.120;2023-06-14T00:59:12;14.40;91.00
18218;DHT22;9234;49.344;11.120;2023-06-14T01:01:42;14.30;91.00
18218;DHT22;9234;49.344;11.120;2023-06-14T01:04:10;14.20;91.00
18218;DHT22;9234;49.344;11.120;2023-06-14T01:06:44;14.20;91.00
18218;DHT22;9234;49.344;11.120;2023-06-14T01:09:33;14.20;90.90
18218;DHT22;9234;49.344;11.120;2023-06-14T01:12:13;14.10;90.80
18218;DHT22;9234;49.344;11.120;2023-06-14T01:14:46;14.10;90.70
18218;DHT22;9234;49.344;11.120;2023-06-14T01:17:18;14.00;90.50
18218;DHT22;9234;49.344;11.120;2023-06-14T01:19:47;14.00;90.40
18218;DHT22;9234;49.344;11.120;2023-06-14T01:22:20;13.90;90.50
18218;DHT22;9234;49.344;11.120;2023-06-14T01:24:50;13.90;90.60
18218;DHT22;9234;49.344;11.120;2023-06-14T01:27:23;13.80;90.60
18218;DHT22;9234;49.344;11.120;2023-06-14T01:29:55;13.80;90.70
18218;DHT22;9234;49.344;11.120;2023-06-14T01:34:54;13.70;90.80
18218;DHT22;9234;49.344;11.120;2023-06-14T01:37:22;13.70;91.00
18218;DHT22;9234;49.344;11.120;2023-06-14T01:39:53;13.60;91.20
18218;DHT22;9234;49.344;11.120;2023-06-14T01:42:23;13.50;91.70
18218;DHT22;9234;49.344;11.120;2023-06-14T01:44:52;13.50;92.10
18218;DHT22;9234;49.344;11.120;2023-06-14T01:47:21;13.40;92.60
18218;DHT22;9234;49.344;11.120;2023-06-14T01:49:50;13.40;93.10
18218;DHT22;9234;49.344;11.120;2023-06-14T01:52:18;13.30;93.20
18218;DHT22;9234;49.344;11.120;2023-06-14T01:54:49;13.20;93.30
18218;DHT22;9234;49.344;11.120;2023-06-14T01:57:18;13.20;93.50
18218;DHT22;9234;49.344;11.120;2023-06-14T01:59:47;13.10;93.50
18218;DHT22;9234;49.344;11.120;2023-06-14T02:02:16;13.00;93.50
18218;DHT22;9234;49.344;11.120;2023-06-14T02:04:44;13.00;93.50
18218;DHT22;9234;49.344;11.120;2023-06-14T02:07:14;12.90;93.60
18218;DHT22;9234;49.344;11.120;2023-06-14T02:09:42;12.90;94.10
18218;DHT22;9234;49.344;11.120;2023-06-14T02:12:10;12.80;94.20
18218;DHT22;9234;49.344;11.120;2023-06-14T02:14:40;12.80;94.30
18218;DHT22;9234;49.344;11.120;2023-06-14T02:17:10;12.70;94.40
18218;DHT22;9234;49.344;11.120;2023-06-14T02:19:38;12.70;94.70
18218;DHT22;9234;49.344;11.120;2023-06-14T02:22:07;12.60;94.90
18218;DHT22;9234;49.344;11.120;2023-06-14T02:24:35;12.60;95.00
18218;DHT22;9234;49.344;11.120;2023-06-14T02:27:07;12.50;95.10
18218;DHT22;9234;49.344;11.120;2023-06-14T02:29:36;12.40;95.10
18218;DHT22;9234;49.344;11.120;2023-06-14T02:32:07;12.40;95.10
18218;DHT22;9234;49.344;11.120;2023-06-14T02:34:35;12.30;95.30
18218;DHT22;9234;49.344;11.120;2023-06-14T02:37:07;12.30;95.40
18218;DHT22;9234;49.344;11.120;2023-06-14T02:39:35;12.20;95.90
18218;DHT22;9234;49.344;11.120;2023-06-14T02:42:04;12.20;96.40
18218;DHT22;9234;49.344;11.120;2023-06-14T02:44:33;12.10;96.70
18218;DHT22;9234;49.344;11.120;2023-06-14T02:47:03;12.10;96.70
18218;DHT22;9234;49.344;11.120;2023-06-14T02:49:33;12.00;96.60
18218;DHT22;9234;49.344;11.120;2023-06-14T02:52:01;12.00;96.70
18218;DHT22;9234;49.344;11.120;2023-06-14T02:54:30;11.90;96.60
18218;DHT22;9234;49.344;11.120;2023-06-14T02:56:58;11.90;96.80
18218;DHT22;9234;49.344;11.120;2023-06-14T02:59:27;11.80;97.10
18218;DHT22;9234;49.344;11.120;2023-06-14T03:01:56;11.80;97.40
18218;DHT22;9234;49.344;11.120;2023-06-14T03:04:24;11.70;97.70
18218;DHT22;9234;49.344;11.120;2023-06-14T03:06:55;11.70;97.80
18218;DHT22;9234;49.344;11.120;2023-06-14T03:09:24;11.70;97.90
18218;DHT22;9234;49.344;11.120;2023-06-14T03:11:52;11.70;97.80
18218;DHT22;9234;49.344;11.120;2023-06-14T03:14:21;11.60;98.00
18218;DHT22;9234;49.344;11.120;2023-06-14T03:16:49;11.60;98.30
18218;DHT22;9234;49.344;11.120;2023-06-14T03:19:24;11.50;98.40
18218;DHT22;9234;49.344;11.120;2023-06-14T03:21:55;11.50;98.50
18218;DHT22;9234;49.344;11.120;2023-06-14T03:24:26;11.50;98.70
18218;DHT22;9234;49.344;11.120;2023-06-14T03:26:57;11.40;98.70
18218;DHT22;9234;49.344;11.120;2023-06-14T03:29:28;11.40;98.70
18218;DHT22;9234;49.344;11.120;2023-06-14T03:31:59;11.30;98.70
18218;DHT22;9234;49.344;11.120;2023-06-14T03:34:35;11.30;98.70
18218;DHT22;9234;49.344;11.120;2023-06-14T03:37:08;11.30;98.60
18218;DHT22;9234;49.344;11.120;2023-06-14T03:39:37;11.30;98.80
18218;DHT22;9234;49.344;11.120;2023-06-14T03:42:16;11.20;99.00
18218;DHT22;9234;49.344;11.120;2023-06-14T03:44:45;11.20;99.10
18218;DHT22;9234;49.344;11.120;2023-06-14T03:47:14;11.20;99.30
18218;DHT22;9234;49.344;11.120;2023-06-14T03:49:43;11.20;99.30
18218;DHT22;9234;49.344;11.120;2023-06-14T03:52:12;11.20;99.60
18218;DHT22;9234;49.344;11.120;2023-06-14T03:54:45;11.20;99.20
18218;DHT22;9234;49.344;11.120;2023-06-14T03:57:17;11.20;99.20
18218;DHT22;9234;49.344;11.120;2023-06-14T03:59:48;11.20;99.30
18218;DHT22;9234;49.344;11.120;2023-06-14T04:02:18;11.20;99.40
18218;DHT22;9234;49.344;11.120;2023-06-14T04:04:46;11.20;99.50
18218;DHT22;9234;49.344;11.120;2023-06-14T04:07:16;11.20;99.80
18218;DHT22;9234;49.344;11.120;2023-06-14T04:09:46;11.20;99.90
18218;DHT22;9234;49.344;11.120;2023-06-14T04:12:14;11.30;99.90
18218;DHT22;9234;49.344;11.120;2023-06-14T04:14:43;11.30;99.90
18218;DHT22;9234;49.344;11.120;2023-06-14T04:17:11;11.30;99.90
18218;DHT22;9234;49.344;11.120;2023-06-14T04:19:43;11.30;99.90
18218;DHT22;9234;49.344;11.120;2023-06-14T04:22:12;11.40;99.90
18218;DHT22;9234;49.344;11.120;2023-06-14T04:24:42;11.40;99.90
18218;DHT22;9234;49.344;11.120;2023-06-14T04:27:16;11.40;99.90
18218;DHT22;9234;49.344;11.120;2023-06-14T04:29:48;11.50;99.90
18218;DHT22;9234;49.344;11.120;2023-06-14T04:32:20;11.50;99.90
18218;DHT22;9234;49.344;11.120;2023-06-14T04:34:48;11.50;99.90
18218;DHT22;9234;49.344;11.120;2023-06-14T04:37:21;11.50;99.90
18218;DHT22;9234;49.344;11.120;2023-06-14T04:39:52;11.60;99.90
18218;DHT22;9234;49.344;11.120;2023-06-14T04:42:23;11.70;99.90
18218;DHT22;9234;49.344;11.120;2023-06-14T04:44:59;11.70;99.90
18218;DHT22;9234;49.344;11.120;2023-06-14T04:47:27;11.80;99.90
18218;DHT22;9234;49.344;11.120;2023-06-14T04:49:57;11.80;99.90
18218;DHT22;9234;49.344;11.120;2023-06-14T04:52:29;11.90;99.90
18218;DHT22;9234;49.344;11.120;2023-06-14T04:54:59;11.90;99.90
18218;DHT22;9234;49.344;11.120;2023-06-14T04:57:28;12.00;99.90
18218;DHT22;9234;49.344;11.120;2023-06-14T04:59:58;12.10;99.90
18218;DHT22;9234;49.344;11.120;2023-06-14T05:02:28;12.20;99.90
18218;DHT22;9234;49.344;11.120;2023-06-14T05:04:59;12.20;99.90
18218;DHT22;9234;49.344;11.120;2023-06-14T05:07:28;12.30;99.90
18218;DHT22;9234;49.344;11.120;2023-06-14T05:09:57;12.40;99.90
18218;DHT22;9234;49.344;11.120;2023-06-14T05:12:29;12.50;99.90
18218;DHT22;9234;49.344;11.120;2023-06-14T05:14:57;12.60;99.90
18218;DHT22;9234;49.344;11.120;2023-06-14T05:17:26;12.70;99.90
18218;DHT22;9234;49.344;11.120;2023-06-14T05:19:55;12.80;99.90
18218;DHT22;9234;49.344;11.120;2023-06-14T05:22:23;12.90;99.90
18218;DHT22;9234;49.344;11.120;2023-06-14T05:24:52;13.10;99.90
18218;DHT22;9234;49.344;11.120;2023-06-14T05:27:20;13.20;99.90
18218;DHT22;9234;49.344;11.120;2023-06-14T05:29:50;13.30;99.90
18218;DHT22;9234;49.344;11.120;2023-06-14T05:32:22;13.40;99.60
18218;DHT22;9234;49.344;11.120;2023-06-14T05:34:51;13.60;99.40
18218;DHT22;9234;49.344;11.120;2023-06-14T05:37:19;13.70;99.20
18218;DHT22;9234;49.344;11.120;2023-06-14T05:39:47;13.80;98.90
18218;DHT22;9234;49.344;11.120;2023-06-14T05:42:15;13.90;98.70
18218;DHT22;9234;49.344;11.120;2023-06-14T05:44:44;14.00;98.40
18218;DHT22;9234;49.344;11.120;2023-06-14T05:47:14;14.10;98.30
18218;DHT22;9234;49.344;11.120;2023-06-14T05:49:42;14.20;98.10
18218;DHT22;9234;49.344;11.120;2023-06-14T05:52:10;14.40;98.10
18218;DHT22;9234;49.344;11.120;2023-06-14T05:54:39;14.50;97.80
18218;DHT22;9234;49.344;11.120;2023-06-14T05:57:08;14.60;97.60
18218;DHT22;9234;49.344;11.120;2023-06-14T05:59:37;14.70;97.50
18218;DHT22;9234;49.344;11.120;2023-06-14T06:02:05;14.80;97.40
18218;DHT22;9234;49.344;11.120;2023-06-14T06:04:35;14.90;97.30
18218;DHT22;9234;49.344;11.120;2023-06-14T06:07:04;15.00;97.00
18218;DHT22;9234;49.344;11.120;2023-06-14T06:09:33;15.10;97.00
18218;DHT22;9234;49.344;11.120;2023-06-14T06:12:01;15.30;96.40
18218;DHT22;9234;49.344;11.120;2023-06-14T06:14:30;15.30;96.00
18218;DHT22;9234;49.344;11.120;2023-06-14T06:16:58;15.40;95.80
18218;DHT22;9234;49.344;11.120;2023-06-14T06:19:26;15.60;95.60
18218;DHT22;9234;49.344;11.120;2023-06-14T06:21:56;15.60;95.40
18218;DHT22;9234;49.344;11.120;2023-06-14T06:24:24;15.80;94.80
18218;DHT22;9234;49.344;11.120;2023-06-14T06:26:53;15.90;94.60
18218;DHT22;9234;49.344;11.120;2023-06-14T06:29:21;16.00;94.50
18218;DHT22;9234;49.344;11.120;2023-06-14T06:31:49;16.10;94.40
18218;DHT22;9234;49.344;11.120;2023-06-14T06:34:18;16.20;94.20
18218;DHT22;9234;49.344;11.120;2023-06-14T06:36:46;16.30;93.90
18218;DHT22;9234;49.344;11.120;2023-06-14T06:39:15;16.40;93.70
18218;DHT22;9234;49.344;11.120;2023-06-14T06:41:44;16.50;93.50
18218;DHT22;9234;49.344;11.120;2023-06-14T06:44:12;16.60;93.20
18218;DHT22;9234;49.344;11.120;2023-06-14T06:46:40;16.70;93.10
18218;DHT22;9234;49.344;11.120;2023-06-14T06:49:10;16.80;93.10
18218;DHT22;9234;49.344;11.120;2023-06-14T06:51:41;16.90;92.90
18218;DHT22;9234;49.344;11.120;2023-06-14T06:54:11;17.00;92.80
18218;DHT22;9234;49.344;11.120;2023-06-14T06:56:40;17.10;92.60
18218;DHT22;9234;49.344;11.120;2023-06-14T06:59:09;17.20;92.10
18218;DHT22;9234;49.344;11.120;2023-06-14T07:01:37;17.30;91.90
18218;DHT22;9234;49.344;11.120;2023-06-14T07:04:05;17.30;92.00
18218;DHT22;9234;49.344;11.120;2023-06-14T07:06:34;17.50;91.70
18218;DHT22;9234;49.344;11.120;2023-06-14T07:09:02;17.60;91.50
18218;DHT22;9234;49.344;11.120;2023-06-14T07:11:34;17.70;90.60
18218;DHT22;9234;49.344;11.120;2023-06-14T07:14:04;17.80;90.10
18218;DHT22;9234;49.344;11.120;2023-06-14T07:16:32;17.90;90.00
18218;DHT22;9234;49.344;11.120;2023-06-14T07:19:01;18.10;89.30
18218;DHT22;9234;49.344;11.120;2023-06-14T07:21:30;18.20;88.30
18218;DHT22;9234;49.344;11.120;2023-06-14T07:23:59;18.30;87.10
18218;DHT22;9234;49.344;11.120;2023-06-14T07:26:27;18.40;86.50
18218;DHT22;9234;49.344;11.120;2023-06-14T07:28:56;18.50;85.60
18218;DHT22;9234;49.344;11.120;2023-06-14T07:31:25;18.60;85.40
18218;DHT22;9234;49.344;11.120;2023-06-14T07:33:54;18.70;85.40
18218;DHT22;9234;49.344;11.120;2023-06-14T07:36:23;18.90;85.20
18218;DHT22;9234;49.344;11.120;2023-06-14T07:38:51;19.00;85.20
18218;DHT22;9234;49.344;11.120;2023-06-14T07:41:20;19.10;84.30
18218;DHT22;9234;49.344;11.120;2023-06-14T07:43:53;19.20;83.90
18218;DHT22;9234;49.344;11.120;2023-06-14T07:46:22;19.40;83.40
18218;DHT22;9234;49.344;11.120;2023-06-14T07:48:52;19.40;80.20
18218;DHT22;9234;49.344;11.120;2023-06-14T07:51:21;19.60;80.70
18218;DHT22;9234;49.344;11.120;2023-06-14T07:53:50;19.60;80.80
18218;DHT22;9234;49.344;11.120;2023-06-14T07:56:18;19.80;80.80
18218;DHT22;9234;49.344;11.120;2023-06-14T07:58:47;19.90;79.50
18218;DHT22;9234;49.344;11.120;2023-06-14T08:01:15;20.00;78.40
18218;DHT22;9234;49.344;11.120;2023-06-14T08:03:43;20.20;76.70
18218;DHT22;9234;49.344;11.120;2023-06-14T08:06:14;20.30;75.20
18218;DHT22;9234;49.344;11.120;2023-06-14T08:08:43;20.30;75.90
18218;DHT22;9234;49.344;11.120;2023-06-14T08:11:11;20.40;75.30
18218;DHT22;9234;49.344;11.120;2023-06-14T08:13:40;20.50;74.20
18218;DHT22;9234;49.344;11.120;2023-06-14T08:16:08;20.60;75.20
18218;DHT22;9234;49.344;11.120;2023-06-14T08:18:37;20.80;75.70
18218;DHT22;9234;49.344;11.120;2023-06-14T08:21:06;21.00;73.90
18218;DHT22;9234;49.344;11.120;2023-06-14T08:23:36;21.10;73.60
18218;DHT22;9234;49.344;11.120;2023-06-14T08:26:05;21.20;72.00
18218;DHT22;9234;49.344;11.120;2023-06-14T08:28:33;21.40;72.40
18218;DHT22;9234;49.344;11.120;2023-06-14T08:31:01;21.70;70.40
18218;DHT22;9234;49.344;11.120;2023-06-14T08:33:30;21.90;69.40
18218;DHT22;9234;49.344;11.120;2023-06-14T08:36:00;22.10;67.30
18218;DHT22;9234;49.344;11.120;2023-06-14T08:38:29;22.10;64.00
18218;DHT22;9234;49.344;11.120;2023-06-14T08:41:01;22.10;65.30
18218;DHT22;9234;49.344;11.120;2023-06-14T08:43:32;22.10;64.60
18218;DHT22;9234;49.344;11.120;2023-06-14T08:46:03;22.00;64.90
18218;DHT22;9234;49.344;11.120;2023-06-14T08:48:35;22.10;65.30
18218;DHT22;9234;49.344;11.120;2023-06-14T08:51:04;22.30;65.20
18218;DHT22;9234;49.344;11.120;2023-06-14T08:53:33;22.40;62.60
18218;DHT22;9234;49.344;11.120;2023-06-14T08:56:10;22.40;61.80
18218;DHT22;9234;49.344;11.120;2023-06-14T08:58:42;22.30;63.50
18218;DHT22;9234;49.344;11.120;2023-06-14T09:01:12;22.20;63.80
18218;DHT22;9234;49.344;11.120;2023-06-14T09:03:41;22.20;63.90
18218;DHT22;9234;49.344;11.120;2023-06-14T09:06:10;22.20;64.20
18218;DHT22;9234;49.344;11.120;2023-06-14T09:08:41;22.20;63.00
18218;DHT22;9234;49.344;11.120;2023-06-14T09:11:13;22.20;64.00
18218;DHT22;9234;49.344;11.120;2023-06-14T09:13:42;22.20;64.50
18218;DHT22;9234;49.344;11.120;2023-06-14T09:16:11;22.30;63.50
18218;DHT22;9234;49.344;11.120;2023-06-14T09:18:41;22.40;63.80
18218;DHT22;9234;49.344;11.120;2023-06-14T09:21:12;22.40;64.00
18218;DHT22;9234;49.344;11.120;2023-06-14T09:23:42;22.50;64.20
18218;DHT22;9234;49.344;11.120;2023-06-14T09:26:13;22.60;64.80
18218;DHT22;9234;49.344;11.120;2023-06-14T09:28:43;22.60;64.90
18218;DHT22;9234;49.344;11.120;2023-06-14T09:31:13;22.70;64.50
18218;DHT22;9234;49.344;11.120;2023-06-14T09:33:43;22.80;65.00
18218;DHT22;9234;49.344;11.120;2023-06-14T09:36:15;22.90;65.20
18218;DHT22;9234;49.344;11.120;2023-06-14T09:38:52;22.80;64.60
18218;DHT22;9234;49.344;11.120;2023-06-14T09:41:30;22.70;64.90
18218;DHT22;9234;49.344;11.120;2023-06-14T09:44:01;22.60;64.70
18218;DHT22;9234;49.344;11.120;2023-06-14T09:46:36;22.50;64.30
18218;DHT22;9234;49.344;11.120;2023-06-14T09:49:05;22.50;65.40
18218;DHT22;9234;49.344;11.120;2023-06-14T09:51:35;22.60;65.80
18218;DHT22;9234;49.344;11.120;2023-06-14T09:54:14;22.60;64.20
18218;DHT22;9234;49.344;11.120;2023-06-14T09:56:47;22.60;64.30
18218;DHT22;9234;49.344;11.120;2023-06-14T09:59:19;22.60;64.60
18218;DHT22;9234;49.344;11.120;2023-06-14T10:01:57;22.60;63.70
18218;DHT22;9234;49.344;11.120;2023-06-14T10:04:30;22.70;63.50
18218;DHT22;9234;49.344;11.120;2023-06-14T10:07:02;22.70;61.70
18218;DHT22;9234;49.344;11.120;2023-06-14T10:09:33;22.80;61.50
18218;DHT22;9234;49.344;11.120;2023-06-14T10:12:04;22.80;63.20
18218;DHT22;9234;49.344;11.120;2023-06-14T10:14:33;22.90;63.00
18218;DHT22;9234;49.344;11.120;2023-06-14T10:17:06;23.00;63.20
18218;DHT22;9234;49.344;11.120;2023-06-14T10:19:42;23.00;62.40
18218;DHT22;9234;49.344;11.120;2023-06-14T10:22:23;23.10;62.90
18218;DHT22;9234;49.344;11.120;2023-06-14T10:24:56;23.30;63.10
18218;DHT22;9234;49.344;11.120;2023-06-14T10:27:26;23.50;63.20
18218;DHT22;9234;49.344;11.120;2023-06-14T10:30:08;23.90;63.60
18218;DHT22;9234;49.344;11.120;2023-06-14T10:33:03;24.40;61.10
18218;DHT22;9234;49.344;11.120;2023-06-14T10:35:32;24.90;59.80
18218;DHT22;9234;49.344;11.120;2023-06-14T10:38:07;25.30;59.80
18218;DHT22;9234;49.344;11.120;2023-06-14T10:40:36;25.60;57.90
18218;DHT22;9234;49.344;11.120;2023-06-14T10:43:23;25.70;56.90
18218;DHT22;9234;49.344;11.120;2023-06-14T10:46:14;25.60;56.70
18218;DHT22;9234;49.344;11.120;2023-06-14T10:48:44;25.60;57.50
18218;DHT22;9234;49.344;11.120;2023-06-14T10:51:17;25.60;57.20
18218;DHT22;9234;49.344;11.120;2023-06-14T10:53:48;25.60;55.40
18218;DHT22;9234;49.344;11.120;2023-06-14T10:56:27;25.40;54.00
18218;DHT22;9234;49.344;11.120;2023-06-14T10:58:58;25.40;55.00
18218;DHT22;9234;49.344;11.120;2023-06-14T11:01:35;25.40;55.40
18218;DHT22;9234;49.344;11.120;2023-06-14T11:04:07;25.40;55.20
18218;DHT22;9234;49.344;11.120;2023-06-14T11:06:48;25.70;56.30
18218;DHT22;9234;49.344;11.120;2023-06-14T11:09:45;26.20;55.10
18218;DHT22;9234;49.344;11.120;2023-06-14T11:12:32;26.50;52.00
18218;DHT22;9234;49.344;11.120;2023-06-14T11:15:05;26.60;52.70
18218;DHT22;9234;49.344;11.120;2023-06-14T11:17:34;26.70;52.50
18218;DHT22;9234;49.344;11.120;2023-06-14T11:20:09;26.70;52.70
18218;DHT22;9234;49.344;11.120;2023-06-14T11:22:41;26.70;53.20
18218;DHT22;9234;49.344;11.120;2023-06-14T11:25:11;26.70;53.40
18218;DHT22;9234;49.344;11.120;2023-06-14T11:27:41;26.70;53.10
18218;DHT22;9234;49.344;11.120;2023-06-14T11:30:13;26.70;52.70
18218;DHT22;9234;49.344;11.120;2023-06-14T11:32:42;26.80;52.70
18218;DHT22;9234;49.344;11.120;2023-06-14T11:35:13;26.90;53.00
18218;DHT22;9234;49.344;11.120;2023-06-14T11:37:43;27.00;52.30
18218;DHT22;9234;49.344;11.120;2023-06-14T11:40:12;26.90;51.60
18218;DHT22;9234;49.344;11.120;2023-06-14T11:42:41;26.90;52.40
18218;DHT22;9234;49.344;11.120;2023-06-14T11:45:11;27.00;52.30
18218;DHT22;9234;49.344;11.120;2023-06-14T11:47:40;27.00;53.40
18218;DHT22;9234;49.344;11.120;2023-06-14T11:50:09;27.10;52.80
18218;DHT22;9234;49.344;11.120;2023-06-14T11:52:38;27.30;52.70
18218;DHT22;9234;49.344;11.120;2023-06-14T11:55:07;27.50;52.90
18218;DHT22;9234;49.344;11.120;2023-06-14T11:57:36;28.00;50.40
18218;DHT22;9234;49.344;11.120;2023-06-14T12:00:07;28.20;48.60
18218;DHT22;9234;49.344;11.120;2023-06-14T12:02:40;28.30;49.60
18218;DHT22;9234;49.344;11.120;2023-06-14T12:05:09;28.30;47.50
18218;DHT22;9234;49.344;11.120;2023-06-14T12:07:37;28.20;46.40
18218;DHT22;9234;49.344;11.120;2023-06-14T12:10:09;28.30;47.10
18218;DHT22;9234;49.344;11.120;2023-06-14T12:12:39;28.30;48.00
18218;DHT22;9234;49.344;11.120;2023-06-14T12:15:09;28.20;47.30
18218;DHT22;9234;49.344;11.120;2023-06-14T12:17:42;28.00;46.50
18218;DHT22;9234;49.344;11.120;2023-06-14T12:20:12;27.70;47.10
18218;DHT22;9234;49.344;11.120;2023-06-14T12:22:54;27.90;48.30
18218;DHT22;9234;49.344;11.120;2023-06-14T12:25:49;28.10;48.80
18218;DHT22;9234;49.344;11.120;2023-06-14T12:28:31;28.20;48.30
18218;DHT22;9234;49.344;11.120;2023-06-14T12:30:59;28.20;48.50
18218;DHT22;9234;49.344;11.120;2023-06-14T12:33:29;28.20;48.70
18218;DHT22;9234;49.344;11.120;2023-06-14T12:35:58;28.30;48.90
18218;DHT22;9234;49.344;11.120;2023-06-14T12:38:27;28.40;48.60
18218;DHT22;9234;49.344;11.120;2023-06-14T12:40:55;28.30;48.30
18218;DHT22;9234;49.344;11.120;2023-06-14T12:43:24;28.30;48.20
18218;DHT22;9234;49.344;11.120;2023-06-14T12:45:53;28.40;48.20
18218;DHT22;9234;49.344;11.120;2023-06-14T12:48:21;28.50;47.90
18218;DHT22;9234;49.344;11.120;2023-06-14T12:50:53;28.50;47.90
18218;DHT22;9234;49.344;11.120;2023-06-14T12:53:22;28.60;47.10
18218;DHT22;9234;49.344;11.120;2023-06-14T12:55:50;28.50;47.60
18218;DHT22;9234;49.344;11.120;2023-06-14T12:58:18;28.60;48.00
18218;DHT22;9234;49.344;11.120;2023-06-14T13:00:47;28.60;47.80
18218;DHT22;9234;49.344;11.120;2023-06-14T13:03:16;28.60;47.00
18218;DHT22;9234;49.344;11.120;2023-06-14T13:05:44;28.60;47.70
18218;DHT22;9234;49.344;11.120;2023-06-14T13:08:14;28.70;47.70
18218;DHT22;9234;49.344;11.120;2023-06-14T13:10:42;29.00;47.50
18218;DHT22;9234;49.344;11.120;2023-06-14T13:13:10;29.50;46.80
18218;DHT22;9234;49.344;11.120;2023-06-14T13:15:40;29.80;46.80
18218;DHT22;9234;49.344;11.120;2023-06-14T13:18:08;30.20;44.80
18218;DHT22;9234;49.344;11.120;2023-06-14T13:20:39;30.50;43.30
18218;DHT22;9234;49.344;11.120;2023-06-14T13:23:07;30.60;42.70
18218;DHT22;9234;49.344;11.120;2023-06-14T13:25:39;30.60;42.30
18218;DHT22;9234;49.344;11.120;2023-06-14T13:28:08;30.40;41.70
18218;DHT22;9234;49.344;11.120;2023-06-14T13:30:37;30.20;42.20
18218;DHT22;9234;49.344;11.120;2023-06-14T13:33:05;29.90;43.60
18218;DHT22;9234;49.344;11.120;2023-06-14T13:35:34;29.80;43.40
18218;DHT22;9234;49.344;11.120;2023-06-14T13:38:02;29.70;42.90
18218;DHT22;9234;49.344;11.120;2023-06-14T13:40:30;29.60;42.30
18218;DHT22;9234;49.344;11.120;2023-06-14T13:43:02;30.10;45.00
18218;DHT22;9234;49.344;11.120;2023-06-14T13:45:30;30.90;44.00
18218;DHT22;9234;49.344;11.120;2023-06-14T13:47:59;31.80;44.10
18218;DHT22;9234;49.344;11.120;2023-06-14T13:50:27;32.80;42.40
18218;DHT22;9234;49.344;11.120;2023-06-14T13:52:55;32.90;39.70
18218;DHT22;9234;49.344;11.120;2023-06-14T13:55:24;32.70;38.80
18218;DHT22;9234;49.344;11.120;2023-06-14T13:57:52;31.90;40.30
18218;DHT22;9234;49.344;11.120;2023-06-14T14:00:22;31.30;40.90
18218;DHT22;9234;49.344;11.120;2023-06-14T14:02:50;30.60;41.60
18218;DHT22;9234;49.344;11.120;2023-06-14T14:05:19;29.80;42.30
18218;DHT22;9234;49.344;11.120;2023-06-14T14:07:47;29.30;43.20
18218;DHT22;9234;49.344;11.120;2023-06-14T14:10:16;28.80;44.10
18218;DHT22;9234;49.344;11.120;2023-06-14T14:12:47;28.20;44.60
18218;DHT22;9234;49.344;11.120;2023-06-14T14:15:15;27.80;45.70
18218;DHT22;9234;49.344;11.120;2023-06-14T14:17:45;27.50;45.80
18218;DHT22;9234;49.344;11.120;2023-06-14T14:20:14;27.20;46.20
18218;DHT22;9234;49.344;11.120;2023-06-14T14:22:44;26.90;46.60
18218;DHT22;9234;49.344;11.120;2023-06-14T14:25:12;26.70;46.90
18218;DHT22;9234;49.344;11.120;2023-06-14T14:27:42;26.50;47.60
18218;DHT22;9234;49.344;11.120;2023-06-14T14:30:13;26.40;48.20
18218;DHT22;9234;49.344;11.120;2023-06-14T14:32:46;26.30;48.60
18218;DHT22;9234;49.344;11.120;2023-06-14T14:35:15;26.20;48.70
18218;DHT22;9234;49.344;11.120;2023-06-14T14:37:44;26.20;48.60
18218;DHT22;9234;49.344;11.120;2023-06-14T14:40:13;26.10;48.40
18218;DHT22;9234;49.344;11.120;2023-06-14T14:42:41;26.10;48.60
18218;DHT22;9234;49.344;11.120;2023-06-14T14:45:10;26.10;49.20
18218;DHT22;9234;49.344;11.120;2023-06-14T14:47:38;26.10;49.50
18218;DHT22;9234;49.344;11.120;2023-06-14T14:50:09;26.10;49.20
18218;DHT22;9234;49.344;11.120;2023-06-14T14:52:38;26.10;49.90
18218;DHT22;9234;49.344;11.120;2023-06-14T14:55:07;26.10;49.40
18218;DHT22;9234;49.344;11.120;2023-06-14T14:57:36;26.20;49.70
18218;DHT22;9234;49.344;11.120;2023-06-14T15:00:06;26.40;50.40
18218;DHT22;9234;49.344;11.120;2023-06-14T15:02:36;27.10;51.00
18218;DHT22;9234;49.344;11.120;2023-06-14T15:05:04;27.90;48.90
18218;DHT22;9234;49.344;11.120;2023-06-14T15:07:34;28.40;48.70
18218;DHT22;9234;49.344;11.120;2023-06-14T15:10:05;28.90;48.00
18218;DHT22;9234;49.344;11.120;2023-06-14T15:12:34;29.20;46.70
18218;DHT22;9234;49.344;11.120;2023-06-14T15:15:04;29.60;45.70
18218;DHT22;9234;49.344;11.120;2023-06-14T15:17:32;30.20;45.40
18218;DHT22;9234;49.344;11.120;2023-06-14T15:20:01;30.70;44.50
18218;DHT22;9234;49.344;11.120;2023-06-14T15:22:30;31.10;43.50
18218;DHT22;9234;49.344;11.120;2023-06-14T15:24:59;31.60;43.10
18218;DHT22;9234;49.344;11.120;2023-06-14T15:27:28;31.90;42.60
18218;DHT22;9234;49.344;11.120;2023-06-14T15:29:56;32.40;42.70
18218;DHT22;9234;49.344;11.120;2023-06-14T15:32:24;32.80;41.20
18218;DHT22;9234;49.344;11.120;2023-06-14T15:34:53;33.00;40.00
18218;DHT22;9234;49.344;11.120;2023-06-14T15:37:21;33.00;38.60
18218;DHT22;9234;49.344;11.120;2023-06-14T15:39:49;32.30;38.70
18218;DHT22;9234;49.344;11.120;2023-06-14T15:42:19;32.10;40.30
18218;DHT22;9234;49.344;11.120;2023-06-14T15:44:47;32.30;40.30
18218;DHT22;9234;49.344;11.120;2023-06-14T15:47:15;32.60;39.90
18218;DHT22;9234;49.344;11.120;2023-06-14T15:49:44;32.90;39.80
18218;DHT22;9234;49.344;11.120;2023-06-14T15:52:12;33.20;39.80